createdAt,value
2018-12-31T00:04:00.022Z,58.67
2018-12-31T00:06:27.330Z,53.50
2018-12-31T00:08:54.661Z,62.60
2018-12-31T00:11:21.979Z,68.63
2018-12-31T00:13:49.537Z,58.00
2018-12-31T00:16:17.202Z,60.50
2018-12-31T00:18:44.538Z,61.60
2018-12-31T00:21:11.878Z,50.97
2018-12-31T00:23:39.212Z,51.97
2018-12-31T00:26:06.533Z,48.87
2018-12-31T00:28:33.864Z,52.83
2018-12-31T00:31:01.422Z,50.93
2018-12-31T00:33:28.762Z,49.13
2018-12-31T00:35:56.099Z,49.93
2018-12-31T00:38:23.437Z,50.33
2018-12-31T00:40:50.741Z,53.00
2018-12-31T00:43:18.070Z,42.57
2018-12-31T00:45:45.384Z,47.97
2018-12-31T00:48:12.693Z,50.17
2018-12-31T00:50:40.033Z,38.80
2018-12-31T00:53:07.346Z,47.63
2018-12-31T00:55:35.040Z,44.27
2018-12-31T00:58:03.716Z,40.67
2018-12-31T01:00:31.031Z,45.97
2018-12-31T01:02:58.361Z,42.83
2018-12-31T01:05:25.677Z,41.60
2018-12-31T01:07:53.005Z,48.10
2018-12-31T01:10:20.328Z,38.63
2018-12-31T01:12:47.643Z,44.00
2018-12-31T01:15:15.222Z,46.17
2018-12-31T01:17:42.890Z,41.60
2018-12-31T01:20:10.198Z,45.27
2018-12-31T01:22:37.550Z,40.37
2018-12-31T01:25:05.253Z,39.47
2018-12-31T01:27:32.577Z,37.10
2018-12-31T01:29:59.904Z,43.50
2018-12-31T01:32:27.227Z,43.10
2018-12-31T01:34:54.874Z,44.03
2018-12-31T01:37:22.191Z,48.97
2018-12-31T01:39:49.790Z,44.17
2018-12-31T01:42:17.450Z,42.30
2018-12-31T01:44:44.778Z,41.30
2018-12-31T01:47:12.081Z,46.37
2018-12-31T01:49:39.410Z,43.80
2018-12-31T01:52:26.061Z,43.87
2018-12-31T01:54:53.385Z,47.67
2018-12-31T01:57:20.716Z,44.60
2018-12-31T01:59:48.026Z,47.17
2018-12-31T02:02:15.338Z,45.47
2018-12-31T02:04:42.673Z,42.20
2018-12-31T02:07:09.981Z,41.97
2018-12-31T02:09:37.305Z,51.83
2018-12-31T02:12:04.619Z,49.83
2018-12-31T02:14:31.930Z,45.90
2018-12-31T02:16:59.282Z,46.90
2018-12-31T02:19:26.606Z,40.80
2018-12-31T02:21:53.929Z,51.27
2018-12-31T02:24:21.238Z,46.53
2018-12-31T02:26:48.864Z,49.40
2018-12-31T02:29:16.169Z,52.07
2018-12-31T02:31:43.482Z,48.63
2018-12-31T02:34:10.816Z,44.27
2018-12-31T02:36:38.478Z,50.27
2018-12-31T02:42:13.057Z,47.13
2018-12-31T02:44:40.371Z,43.13
2018-12-31T02:47:07.683Z,41.10
2018-12-31T02:49:35.290Z,44.63
2018-12-31T02:52:02.605Z,37.23
2018-12-31T02:54:29.919Z,38.43
2018-12-31T02:56:57.241Z,38.87
2018-12-31T02:59:24.562Z,37.43
2018-12-31T03:01:51.891Z,36.43
2018-12-31T03:04:19.201Z,32.27
2018-12-31T03:06:46.766Z,31.47
2018-12-31T03:09:14.089Z,38.07
2018-12-31T03:11:41.721Z,32.17
2018-12-31T03:14:09.081Z,31.73
2018-12-31T03:16:36.387Z,31.80
2018-12-31T03:19:04.045Z,29.17
2018-12-31T03:21:31.703Z,31.47
2018-12-31T03:23:59.369Z,29.03
2018-12-31T03:26:26.681Z,28.33
2018-12-31T03:28:54.006Z,27.47
2018-12-31T03:31:21.330Z,27.87
2018-12-31T03:33:48.643Z,26.63
2018-12-31T03:36:15.978Z,28.43
2018-12-31T03:38:43.590Z,26.23
2018-12-31T03:41:10.902Z,24.53
2018-12-31T03:43:38.505Z,22.70
2018-12-31T03:46:06.162Z,25.60
2018-12-31T03:48:33.727Z,22.67
2018-12-31T03:51:01.042Z,25.17
2018-12-31T03:53:28.372Z,23.57
2018-12-31T03:55:55.682Z,27.63
2018-12-31T03:58:23.238Z,28.23
2018-12-31T04:00:50.562Z,23.03
2018-12-31T04:03:17.886Z,23.27
2018-12-31T04:05:45.198Z,25.73
2018-12-31T04:08:12.862Z,29.83
2018-12-31T04:10:40.207Z,27.13
2018-12-31T04:13:07.522Z,24.80
2018-12-31T04:15:34.838Z,28.03
2018-12-31T04:18:02.484Z,25.53
2018-12-31T04:20:29.793Z,28.10
2018-12-31T04:22:57.118Z,27.63
2018-12-31T04:25:24.457Z,26.07
2018-12-31T04:27:51.766Z,26.83
2018-12-31T04:30:19.450Z,25.77
2018-12-31T04:32:46.767Z,23.57
2018-12-31T04:35:14.074Z,27.20
2018-12-31T04:37:41.407Z,29.70
2018-12-31T04:40:08.791Z,31.03
2018-12-31T04:42:36.099Z,30.73
2018-12-31T04:45:14.637Z,28.47
2018-12-31T04:47:41.957Z,31.20
2018-12-31T04:50:09.288Z,31.47
2018-12-31T04:52:36.906Z,33.27
2018-12-31T04:55:04.290Z,28.67
2018-12-31T04:57:31.615Z,36.40
2018-12-31T04:59:58.930Z,30.57
2018-12-31T05:02:26.238Z,27.03
2018-12-31T05:04:53.566Z,32.37
2018-12-31T05:07:20.878Z,39.77
2018-12-31T05:09:48.201Z,45.47
2018-12-31T05:12:15.833Z,36.67
2018-12-31T05:14:43.152Z,42.77
2018-12-31T05:17:10.479Z,44.10
2018-12-31T05:19:37.865Z,42.60
2018-12-31T05:22:05.209Z,51.43
2018-12-31T05:24:32.521Z,52.17
2018-12-31T05:26:59.833Z,52.17
2018-12-31T05:29:27.164Z,59.87
2018-12-31T05:31:54.495Z,55.40
2018-12-31T05:34:21.802Z,46.80
2018-12-31T05:36:49.109Z,46.43
2018-12-31T05:39:16.441Z,50.40
2018-12-31T05:41:43.758Z,48.87
2018-12-31T05:44:11.070Z,58.23
2018-12-31T05:46:38.403Z,53.43
2018-12-31T05:49:05.711Z,54.90
2018-12-31T05:51:33.287Z,60.77
2018-12-31T05:54:00.613Z,62.47
2018-12-31T05:56:27.921Z,62.00
2018-12-31T05:58:55.555Z,63.23
2018-12-31T06:01:22.878Z,62.03
2018-12-31T06:03:50.470Z,54.47
2018-12-31T06:06:18.029Z,58.37
2018-12-31T06:08:45.374Z,57.23
2018-12-31T06:11:12.707Z,60.70
2018-12-31T06:13:40.049Z,52.30
2018-12-31T06:16:07.358Z,54.27
2018-12-31T06:18:34.665Z,54.17
2018-12-31T06:21:01.995Z,59.90
2018-12-31T06:23:29.307Z,57.00
2018-12-31T06:25:56.618Z,52.60
2018-12-31T06:31:18.117Z,54.33
2018-12-31T06:33:45.435Z,56.93
2018-12-31T06:36:12.750Z,55.30
2018-12-31T06:38:40.074Z,57.33
2018-12-31T06:41:07.392Z,61.43
2018-12-31T06:43:34.716Z,64.10
2018-12-31T06:46:02.038Z,57.70
2018-12-31T06:48:29.350Z,51.20
2018-12-31T06:50:56.917Z,53.33
2018-12-31T06:53:24.225Z,51.47
2018-12-31T06:55:51.557Z,47.07
2018-12-31T06:58:18.871Z,46.07
2018-12-31T07:00:46.206Z,44.27
2018-12-31T07:03:13.517Z,51.83
2018-12-31T07:05:40.862Z,47.53
2018-12-31T07:08:08.496Z,46.50
2018-12-31T07:10:35.805Z,51.30
2018-12-31T07:13:03.133Z,55.37
2018-12-31T07:15:30.458Z,49.63
2018-12-31T07:17:57.784Z,50.00
2018-12-31T07:20:25.094Z,58.90
2018-12-31T07:22:52.405Z,51.57
2018-12-31T07:25:19.733Z,56.23
2018-12-31T07:27:47.058Z,53.67
2018-12-31T07:30:14.381Z,58.00
2018-12-31T07:32:41.693Z,58.13
2018-12-31T07:35:09.282Z,67.77
2018-12-31T07:37:37.247Z,68.63
2018-12-31T07:40:05.897Z,70.97
2018-12-31T07:42:33.490Z,63.23
2018-12-31T07:45:00.837Z,68.40
2018-12-31T07:47:28.166Z,77.57
2018-12-31T07:50:14.969Z,77.97
2018-12-31T07:52:42.277Z,90.00
2018-12-31T07:55:09.582Z,86.33
2018-12-31T07:57:36.911Z,93.13
2018-12-31T08:00:25.063Z,87.83
2018-12-31T08:02:52.669Z,96.13
2018-12-31T08:05:20.356Z,104.27
2018-12-31T08:07:48.603Z,102.50
2018-12-31T08:10:16.772Z,97.63
2018-12-31T08:12:44.153Z,99.83
2018-12-31T08:15:11.791Z,106.07
2018-12-31T08:17:39.117Z,94.37
2018-12-31T08:20:06.706Z,92.27
2018-12-31T08:22:34.026Z,108.53
2018-12-31T08:25:01.373Z,106.80
2018-12-31T08:27:28.754Z,97.57
2018-12-31T08:29:56.065Z,100.00
2018-12-31T08:32:23.683Z,101.90
2018-12-31T08:34:51.023Z,104.07
2018-12-31T08:37:18.362Z,101.90
2018-12-31T08:39:45.701Z,101.73
2018-12-31T08:42:13.297Z,117.00
2018-12-31T08:44:40.991Z,90.37
2018-12-31T08:47:08.298Z,108.67
2018-12-31T08:49:35.614Z,106.87
2018-12-31T08:52:02.925Z,109.87
2018-12-31T08:54:30.601Z,109.30
2018-12-31T08:56:58.238Z,132.53
2018-12-31T08:59:25.549Z,109.17
2018-12-31T09:01:53.153Z,108.07
2018-12-31T09:04:20.478Z,107.97
2018-12-31T09:06:48.062Z,121.23
2018-12-31T09:09:15.387Z,115.40
2018-12-31T09:11:42.697Z,120.80
2018-12-31T09:14:10.333Z,127.57
2018-12-31T09:16:37.665Z,129.70
2018-12-31T09:19:04.978Z,110.03
2018-12-31T09:21:32.310Z,112.50
2018-12-31T09:23:59.653Z,110.40
2018-12-31T09:26:26.969Z,121.37
2018-12-31T09:28:54.305Z,114.70
2018-12-31T09:31:21.693Z,109.60
2018-12-31T09:33:49.033Z,126.10
2018-12-31T09:36:16.377Z,109.57
2018-12-31T09:38:43.693Z,118.00
2018-12-31T09:41:11.010Z,114.53
2018-12-31T09:43:38.354Z,118.90
2018-12-31T09:46:05.933Z,124.57
2018-12-31T09:48:33.596Z,120.07
2018-12-31T09:51:00.922Z,126.83
2018-12-31T09:53:28.257Z,122.37
2018-12-31T09:55:55.585Z,129.60
2018-12-31T09:58:23.210Z,117.37
2018-12-31T10:00:50.530Z,116.10
2018-12-31T10:03:17.866Z,129.17
2018-12-31T10:05:45.193Z,110.40
2018-12-31T10:08:12.521Z,120.90
2018-12-31T10:10:39.865Z,114.43
2018-12-31T10:13:07.197Z,97.57
2018-12-31T10:15:34.530Z,102.90
2018-12-31T10:18:01.861Z,107.87
2018-12-31T10:20:29.173Z,122.30
2018-12-31T10:22:56.490Z,115.23
2018-12-31T10:25:23.825Z,119.63
2018-12-31T10:27:51.137Z,120.57
2018-12-31T10:30:18.450Z,124.37
2018-12-31T10:32:46.061Z,113.23
2018-12-31T10:35:13.378Z,111.53
2018-12-31T10:37:40.693Z,119.63
2018-12-31T10:43:01.781Z,121.07
2018-12-31T10:45:29.105Z,126.83
2018-12-31T10:47:56.457Z,118.30
2018-12-31T10:50:23.847Z,112.43
2018-12-31T10:52:51.188Z,123.70
2018-12-31T10:55:18.763Z,120.40
2018-12-31T10:57:46.102Z,120.90
2018-12-31T11:03:01.531Z,122.03
2018-12-31T11:05:28.858Z,134.00
2018-12-31T11:07:56.422Z,122.40
2018-12-31T11:10:23.769Z,116.77
2018-12-31T11:12:51.101Z,118.83
2018-12-31T11:15:18.417Z,112.20
2018-12-31T11:18:05.091Z,126.57
2018-12-31T11:20:32.418Z,128.27
2018-12-31T11:22:59.761Z,120.73
2018-12-31T11:25:27.094Z,104.40
2018-12-31T11:27:54.406Z,100.60
2018-12-31T11:30:22.061Z,109.67
2018-12-31T11:32:49.381Z,103.40
2018-12-31T11:35:16.974Z,105.07
2018-12-31T11:37:44.289Z,100.03
2018-12-31T11:40:11.885Z,99.27
2018-12-31T11:42:39.228Z,107.83
2018-12-31T11:48:00.725Z,108.97
2018-12-31T11:50:28.338Z,99.23
2018-12-31T11:52:55.659Z,102.70
2018-12-31T11:55:23.001Z,108.03
2018-12-31T11:57:50.310Z,107.63
2018-12-31T12:00:17.961Z,102.83
2018-12-31T12:02:45.302Z,102.47
2018-12-31T12:05:12.625Z,85.20
2018-12-31T12:07:39.953Z,99.00
2018-12-31T12:10:07.286Z,94.77
2018-12-31T12:12:34.942Z,94.83
2018-12-31T12:15:02.249Z,99.10
2018-12-31T12:17:29.578Z,91.43
2018-12-31T12:19:57.194Z,87.17
2018-12-31T12:22:24.525Z,87.87
2018-12-31T12:24:51.851Z,82.47
2018-12-31T12:27:19.153Z,93.90
2018-12-31T12:29:46.485Z,82.20
2018-12-31T12:32:14.075Z,82.80
2018-12-31T12:34:41.410Z,74.50
2018-12-31T12:37:10.442Z,89.03
2018-12-31T12:39:37.788Z,87.93
2018-12-31T12:42:05.099Z,87.90
2018-12-31T12:44:32.425Z,87.60
2018-12-31T12:46:59.760Z,75.13
2018-12-31T12:49:27.396Z,88.50
2018-12-31T12:51:54.812Z,81.27
2018-12-31T12:54:22.169Z,88.37
2018-12-31T12:56:49.477Z,84.07
2018-12-31T12:59:16.883Z,77.20
2018-12-31T13:01:44.490Z,98.77
2018-12-31T13:04:13.546Z,99.30
2018-12-31T13:06:40.878Z,85.13
2018-12-31T13:09:08.214Z,88.93
2018-12-31T13:17:02.462Z,85.07
2018-12-31T13:19:49.118Z,83.97
2018-12-31T13:22:16.733Z,87.97
2018-12-31T13:24:44.044Z,92.40
2018-12-31T13:27:11.354Z,92.23
2018-12-31T13:29:38.690Z,86.73
2018-12-31T13:32:05.998Z,83.70
2018-12-31T13:34:33.329Z,84.07
2018-12-31T13:37:00.978Z,80.80
2018-12-31T13:39:28.318Z,80.83
2018-12-31T13:41:55.686Z,74.17
2018-12-31T13:44:23.009Z,76.57
2018-12-31T13:46:50.346Z,85.10
2018-12-31T13:49:17.678Z,80.67
2018-12-31T13:51:44.995Z,78.30
2018-12-31T13:54:12.328Z,80.80
2018-12-31T13:57:06.666Z,76.23
2018-12-31T13:59:34.403Z,84.73
2018-12-31T14:02:02.069Z,92.77
2018-12-31T14:04:29.373Z,75.73
2018-12-31T14:06:56.710Z,90.27
2018-12-31T14:09:24.320Z,78.60
2018-12-31T14:11:53.614Z,86.77
2018-12-31T14:14:21.283Z,84.70
2018-12-31T14:16:48.944Z,89.77
2018-12-31T14:19:16.258Z,84.03
2018-12-31T14:21:43.872Z,85.27
2018-12-31T14:24:11.206Z,72.77
2018-12-31T14:26:38.772Z,86.37
2018-12-31T14:29:06.429Z,80.90
2018-12-31T14:31:33.761Z,86.37
2018-12-31T14:34:01.343Z,82.00
2018-12-31T14:36:28.678Z,84.20
2018-12-31T14:38:57.997Z,82.50
2018-12-31T14:41:25.325Z,91.23
2018-12-31T14:43:52.662Z,79.63
2018-12-31T14:46:20.294Z,83.47
2018-12-31T14:48:47.608Z,87.43
2018-12-31T14:51:14.938Z,91.93
2018-12-31T14:53:42.261Z,81.10
2018-12-31T14:56:09.878Z,81.03
2018-12-31T14:58:37.542Z,85.37
2018-12-31T15:01:04.874Z,82.67
2018-12-31T15:03:32.194Z,89.37
2018-12-31T15:05:59.509Z,91.60
2018-12-31T15:08:26.846Z,78.00
2018-12-31T15:10:54.159Z,77.43
2018-12-31T15:13:21.504Z,78.67
2018-12-31T15:15:48.825Z,77.13
2018-12-31T15:18:16.160Z,81.10
2018-12-31T15:20:46.108Z,83.67
2018-12-31T15:23:14.262Z,90.00
2018-12-31T15:25:41.572Z,77.40
2018-12-31T15:28:08.913Z,84.30
2018-12-31T15:30:36.513Z,80.83
2018-12-31T15:33:03.829Z,76.43
2018-12-31T15:35:31.438Z,78.77
2018-12-31T15:37:58.750Z,89.03
2018-12-31T15:40:26.090Z,84.30
2018-12-31T15:42:53.409Z,86.70
2018-12-31T15:45:20.742Z,82.83
2018-12-31T15:47:50.043Z,89.47
2018-12-31T15:50:17.361Z,78.47
2018-12-31T15:52:44.704Z,76.47
2018-12-31T15:55:12.019Z,83.50
2018-12-31T15:57:39.661Z,70.10
2018-12-31T16:03:00.896Z,79.40
2018-12-31T16:05:28.205Z,75.00
2018-12-31T16:07:55.806Z,75.03
2018-12-31T16:10:23.150Z,78.53
2018-12-31T16:12:50.454Z,63.90
2018-12-31T16:15:17.767Z,68.07
2018-12-31T16:17:45.098Z,67.80
2018-12-31T16:20:12.673Z,66.10
2018-12-31T16:22:40.010Z,72.13
2018-12-31T16:25:09.049Z,78.50
2018-12-31T16:27:36.382Z,78.13
2018-12-31T16:33:10.965Z,76.33
2018-12-31T16:35:38.577Z,73.80
2018-12-31T16:38:05.890Z,69.43
2018-12-31T16:40:33.237Z,72.07
2018-12-31T16:43:00.550Z,76.63
2018-12-31T16:45:29.585Z,86.50
2018-12-31T16:47:56.918Z,80.13
2018-12-31T16:50:24.239Z,87.60
2018-12-31T16:52:51.577Z,86.93
2018-12-31T16:55:18.897Z,85.53
2018-12-31T16:57:46.501Z,78.53
2018-12-31T17:00:13.843Z,79.30
2018-12-31T17:02:41.154Z,80.53
2018-12-31T17:05:08.477Z,80.00
2018-12-31T17:07:35.810Z,76.13
2018-12-31T17:10:23.942Z,78.67
2018-12-31T17:12:51.274Z,82.57
2018-12-31T17:15:18.613Z,77.93
2018-12-31T17:17:46.120Z,89.50
2018-12-31T17:20:13.732Z,83.23
2018-12-31T17:22:41.317Z,83.60
2018-12-31T17:27:47.246Z,76.37
2018-12-31T17:30:14.866Z,86.33
2018-12-31T17:32:42.334Z,84.43
2018-12-31T17:37:43.332Z,82.97
2018-12-31T17:40:10.972Z,76.73
2018-12-31T17:42:38.925Z,75.40
2018-12-31T17:45:06.885Z,87.13
2018-12-31T17:47:34.456Z,74.77
2018-12-31T17:50:02.036Z,80.00
2018-12-31T17:52:29.520Z,78.47
2018-12-31T17:54:56.898Z,84.77
2018-12-31T17:57:24.210Z,85.17
2018-12-31T17:59:51.517Z,77.53
2018-12-31T18:02:18.854Z,80.47
2018-12-31T18:04:46.162Z,79.50
2018-12-31T18:07:13.506Z,77.53
2018-12-31T18:09:40.888Z,76.57
2018-12-31T18:12:08.230Z,78.27
2018-12-31T18:14:35.573Z,69.30
2018-12-31T18:17:02.893Z,81.53
2018-12-31T18:19:30.213Z,79.40
2018-12-31T18:21:57.554Z,76.67
2018-12-31T18:24:24.886Z,80.03
2018-12-31T18:26:52.217Z,81.80
2018-12-31T18:29:19.530Z,86.67
2018-12-31T18:31:48.586Z,75.23
2018-12-31T18:34:15.903Z,80.43
2018-12-31T18:36:43.253Z,74.33
2018-12-31T18:39:10.570Z,80.20
2018-12-31T18:41:37.882Z,74.87
2018-12-31T18:44:05.230Z,73.10
2018-12-31T18:46:32.542Z,81.83
2018-12-31T18:48:59.894Z,73.40
2018-12-31T18:51:27.221Z,79.63
2018-12-31T18:53:54.626Z,75.97
2018-12-31T18:56:21.942Z,68.30
2018-12-31T18:58:49.282Z,82.10
2018-12-31T19:01:16.590Z,85.37
2018-12-31T19:03:43.901Z,79.17
2018-12-31T19:06:11.238Z,80.80
2018-12-31T19:08:38.550Z,88.80
2018-12-31T19:11:05.891Z,89.93
2018-12-31T19:13:33.205Z,82.67
2018-12-31T19:18:54.726Z,92.63
2018-12-31T19:21:22.046Z,85.13
2018-12-31T19:23:51.094Z,87.70
2018-12-31T19:26:18.690Z,81.67
2018-12-31T19:28:46.029Z,86.93
2018-12-31T19:31:13.434Z,91.27
2018-12-31T19:33:40.737Z,79.13
2018-12-31T19:36:08.306Z,82.13
2018-12-31T19:38:37.382Z,92.23
2018-12-31T19:41:04.701Z,85.13
2018-12-31T19:43:32.315Z,90.67
2018-12-31T19:45:59.652Z,102.07
2018-12-31T19:48:26.969Z,120.60
2018-12-31T19:50:54.586Z,120.57
2018-12-31T19:53:21.914Z,241.60
2018-12-31T19:55:49.258Z,180.17
2018-12-31T19:58:16.853Z,131.87
2018-12-31T20:00:44.206Z,107.20
2018-12-31T20:03:11.506Z,95.20
2018-12-31T20:05:38.845Z,106.70
2018-12-31T20:08:06.177Z,98.73
2018-12-31T20:10:34.594Z,98.80
2018-12-31T20:13:02.819Z,91.07
2018-12-31T20:15:30.369Z,94.43
2018-12-31T20:17:57.710Z,96.33
2018-12-31T20:20:29.121Z,106.00
2018-12-31T20:22:56.465Z,100.17
2018-12-31T20:25:24.193Z,98.07
2018-12-31T20:27:51.517Z,93.23
2018-12-31T20:30:18.866Z,102.63
2018-12-31T20:32:46.186Z,104.03
2018-12-31T20:35:15.238Z,91.77
2018-12-31T20:37:42.562Z,92.00
2018-12-31T20:40:09.911Z,100.03
2018-12-31T20:42:37.223Z,99.67
2018-12-31T20:48:01.862Z,99.73
2018-12-31T20:50:27.121Z,100.57
2018-12-31T20:52:54.432Z,98.43
2018-12-31T20:55:22.025Z,93.30
2018-12-31T20:57:49.337Z,110.30
2018-12-31T21:00:37.991Z,104.60
2018-12-31T21:03:05.306Z,95.87
2018-12-31T21:05:32.625Z,106.63
2018-12-31T21:07:59.996Z,107.93
2018-12-31T21:10:29.001Z,103.37
2018-12-31T21:12:56.343Z,115.27
2018-12-31T21:15:43.005Z,106.30
2018-12-31T21:18:10.333Z,93.50
2018-12-31T21:20:37.929Z,102.27
2018-12-31T21:23:05.249Z,99.10
2018-12-31T21:25:32.581Z,88.30
2018-12-31T21:27:59.931Z,92.67
2018-12-31T21:30:27.247Z,85.63
2018-12-31T21:32:54.565Z,91.50
2018-12-31T21:35:23.934Z,82.27
2018-12-31T21:37:51.242Z,87.37
2018-12-31T21:40:18.582Z,81.10
2018-12-31T21:42:45.894Z,73.27
2018-12-31T21:45:13.222Z,73.70
2018-12-31T21:47:40.558Z,77.20
2018-12-31T21:50:09.617Z,66.90
2018-12-31T21:52:36.953Z,68.53
2018-12-31T21:58:11.538Z,65.40
2018-12-31T22:00:38.869Z,69.13
2018-12-31T22:03:06.186Z,74.17
2018-12-31T22:05:33.847Z,73.87
2018-12-31T22:08:01.169Z,73.07
2018-12-31T22:10:28.514Z,75.63
2018-12-31T22:12:55.830Z,84.07
2018-12-31T22:15:23.170Z,84.47
2018-12-31T22:17:50.486Z,79.87
2018-12-31T22:20:17.799Z,78.67
2018-12-31T22:22:45.134Z,83.50
2018-12-31T22:25:12.781Z,86.73
2018-12-31T22:27:40.113Z,77.40
2018-12-31T22:33:14.698Z,76.20
2018-12-31T22:35:42.334Z,83.27
2018-12-31T22:38:09.649Z,81.80
2018-12-31T22:40:36.977Z,80.93
2018-12-31T22:45:52.389Z,78.10
2018-12-31T22:48:19.721Z,80.83
2018-12-31T22:50:47.031Z,88.83
2018-12-31T22:53:14.697Z,80.20
2018-12-31T22:55:42.030Z,79.50
2018-12-31T22:58:09.358Z,70.20
2018-12-31T23:03:24.769Z,118.80
2018-12-31T23:05:52.102Z,166.23
2018-12-31T23:08:19.470Z,653.33
2018-12-31T23:10:46.802Z,684.90
2018-12-31T23:13:14.422Z,546.77
2018-12-31T23:15:41.741Z,634.23
2018-12-31T23:18:09.093Z,492.37
2018-12-31T23:20:36.478Z,339.87
2018-12-31T23:23:03.806Z,340.47
2018-12-31T23:25:31.153Z,248.80
2018-12-31T23:27:58.488Z,234.43
2018-12-31T23:30:25.844Z,219.33
2018-12-31T23:32:53.170Z,237.17
2018-12-31T23:35:20.495Z,255.83
2018-12-31T23:37:47.850Z,266.00
2018-12-31T23:40:15.165Z,239.17
2018-12-31T23:42:42.482Z,227.40
2018-12-31T23:48:04.024Z,193.77
2018-12-31T23:50:31.653Z,156.73
2018-12-31T23:52:58.970Z,140.13
2018-12-31T23:55:26.306Z,127.93
2018-12-31T23:57:54.033Z,114.10
